Time;durP1;ratioP1;P1;durP2;ratioP2;P2;SDS_P1;SDS_P2;PMS_P1;PMS_P2;Temp;Humidity;BMP_temperature;BMP_pressure;BME280_temperature;BME280_humidity;BME280_pressure;Samples;Min_cycle;Max_cycle;Signal;HPM_P1;HPM_P2
2022/01/16 06:01:08;;;;;;;15.30;9.98;;;;;;;1.12;67.11;95275.86;828544;71;29736;-79
2022/01/16 06:16:12;;;;;;;12.55;9.13;;;;;;;1.20;64.96;95267.86;829524;71;32459;-81
2022/01/16 06:31:09;;;;;;;14.13;9.00;;;;;;;1.38;64.55;95292.20;827948;71;30293;-81
2022/01/16 06:46:08;;;;;;;13.48;10.53;;;;;;;1.53;63.69;95304.31;828292;71;29705;-81
2022/01/16 07:01:15;;;;;;;15.38;9.10;;;;;;;1.78;62.03;95308.69;826855;70;32848;-79
2022/01/16 07:16:08;;;;;;;16.90;11.00;;;;;;;2.20;61.51;95330.92;828733;71;29858;-79
2022/01/16 07:31:14;;;;;;;17.37;12.18;;;;;;;4.31;58.10;95322.78;833420;70;32811;-83
2022/01/16 07:46:14;;;;;;;15.65;11.25;;;;;;;6.59;53.11;95334.54;835007;70;32716;-81
2022/01/16 08:01:08;;;;;;;16.27;11.05;;;;;;;8.51;48.42;95341.56;828441;71;29738;-81
2022/01/16 08:16:08;;;;;;;11.50;9.13;;;;;;;9.99;45.28;95332.55;832504;70;29494;-81
2022/01/16 08:31:15;;;;;;;10.53;8.90;;;;;;;11.00;42.46;95322.13;834321;70;32802;-81
2022/01/16 08:46:15;;;;;;;15.63;10.35;;;;;;;11.91;40.90;95317.95;830830;71;32822;-83
2022/01/16 09:01:08;;;;;;;14.93;12.33;;;;;;;12.43;39.41;95309.33;824401;71;30161;-81
2022/01/16 09:16:08;;;;;;;20.23;13.85;;;;;;;12.59;38.32;95304.70;825543;70;29710;-85
2022/01/16 09:31:11;;;;;;;17.23;12.82;;;;;;;12.45;38.49;95284.56;832040;70;30102;-84
2022/01/16 09:46:22;;;;;;;18.82;14.33;;;;;;;11.90;38.08;95274.30;829343;71;32766;-86
2022/01/16 10:01:15;;;;;;;17.17;13.78;;;;;;;12.17;38.56;95255.39;824551;70;32787;-82
2022/01/16 10:16:09;;;;;;;16.12;12.65;;;;;;;12.80;37.32;95236.77;829375;71;29828;-85
2022/01/16 10:31:28;;;;;;;15.25;12.80;;;;;;;12.47;37.25;95221.39;792095;73;33067;-79
2022/01/16 10:46:12;;;;;;;15.28;13.48;;;;;;;13.01;36.68;95204.34;828210;71;30316;-82
2022/01/16 11:01:14;;;;;;;18.37;15.75;;;;;;;13.33;36.45;95183.65;828533;70;31484;-80
2022/01/16 11:16:23;;;;;;;18.90;14.58;;;;;;;12.85;36.09;95168.75;820803;70;32837;-82
2022/01/16 11:31:16;;;;;;;17.15;13.80;;;;;;;12.93;36.14;95160.75;821482;70;32753;-81
2022/01/16 11:46:20;;;;;;;22.22;16.57;;;;;;;11.69;36.90;95141.67;826308;71;31479;-87
2022/01/16 12:01:14;;;;;;;24.75;16.57;;;;;;;11.35;37.66;95135.93;818730;71;31550;-87
2022/01/16 12:16:38;;;;;;;18.77;15.70;;;;;;;11.51;37.77;95126.06;802339;71;33626;-82
2022/01/16 12:31:08;;;;;;;20.10;15.83;;;;;;;11.66;37.46;95115.16;822216;71;30191;-86
2022/01/16 12:46:20;;;;;;;21.45;16.73;;;;;;;10.89;38.22;95111.87;834624;71;32756;-84
2022/01/16 13:01:28;;;;;;;22.02;16.65;;;;;;;9.62;40.42;95068.95;824320;71;32874;-86
2022/01/16 13:16:22;;;;;;;26.35;17.73;;;;;;;9.53;40.88;95093.61;823458;71;31635;-86
2022/01/16 13:31:09;;;;;;;23.62;16.80;;;;;;;9.07;41.62;161042.23;823379;71;30416;-84
2022/01/16 13:46:14;;;;;;;26.05;17.70;;;;;;;8.45;42.96;95080.28;790825;74;30384;-83
2022/01/16 14:01:21;;;;;;;27.20;18.85;;;;;;;7.73;44.54;95085.27;823755;71;33223;-85
2022/01/16 14:16:13;;;;;;;29.37;18.80;;;;;;;6.74;46.76;95075.23;822041;71;30358;-83
2022/01/16 14:31:14;;;;;;;30.15;18.42;;;;;;;6.10;49.06;95061.60;822435;71;32823;-83
2022/01/16 14:46:08;;;;;;;31.65;19.80;;;;;;;5.52;51.15;95048.70;828433;71;30620;-86
2022/01/16 15:01:15;;;;;;;30.05;19.77;;;;;;;4.97;52.87;95039.38;834094;71;32657;-84
2022/01/16 15:16:12;;;;;;;37.03;22.65;;;;;;;4.56;54.42;95032.28;829379;70;29805;-81
2022/01/16 15:31:09;;;;;;;42.35;23.80;;;;;;;3.88;55.37;94985.17;820750;71;30857;-79
2022/01/16 15:46:08;;;;;;;39.50;22.52;;;;;;;3.95;56.43;95048.09;819971;71;29784;-83
2022/01/16 16:01:17;;;;;;;41.55;23.35;;;;;;;3.59;57.56;95040.44;826361;71;34260;-81
2022/01/16 16:16:09;;;;;;;39.83;23.00;;;;;;;3.10;58.56;95041.75;828005;71;28390;-82
2022/01/16 16:31:12;;;;;;;65.28;34.43;;;;;;;2.88;59.05;95047.52;834041;71;31590;-83
2022/01/16 16:46:15;;;;;;;80.15;45.58;;;;;;;2.59;61.64;95033.63;818630;70;31741;-84
2022/01/16 17:01:12;;;;;;;53.92;32.85;;;;;;;2.20;61.92;95003.45;831646;71;32067;-84
2022/01/16 17:16:16;;;;;;;57.90;33.48;;;;;;;2.17;61.65;95028.47;820021;71;32834;-84
2022/01/16 17:31:13;;;;;;;49.23;28.30;;;;;;;2.11;61.91;95031.47;828704;71;32631;-87
2022/01/16 17:46:14;;;;;;;56.70;33.58;;;;;;;2.03;61.92;95029.19;834409;71;32686;-83
2022/01/16 18:01:20;;;;;;;67.58;36.63;;;;;;;2.02;62.36;95026.81;834207;71;33227;-83
2022/01/16 18:16:14;;;;;;;67.05;40.05;;;;;;;1.95;61.92;95023.81;820191;71;32828;-83
2022/01/16 18:31:13;;;;;;;101.92;51.95;;;;;;;1.90;62.00;95021.08;826014;71;32798;-83
2022/01/16 18:46:12;;;;;;;70.67;43.55;;;;;;;1.82;62.03;95011.55;825830;71;32116;-85
2022/01/16 19:01:19;;;;;;;90.25;45.78;;;;;;;1.68;61.82;95014.81;817637;71;32842;-82
2022/01/16 19:16:14;;;;;;;62.03;36.73;;;;;;;1.62;62.25;95023.45;828730;71;31380;-85
2022/01/16 19:31:14;;;;;;;52.78;29.65;;;;;;;1.46;61.93;95008.02;834714;71;32595;-85
2022/01/16 19:46:10;;;;;;;46.40;27.62;;;;;;;1.35;62.38;95004.38;834346;71;30290;-84
2022/01/16 20:01:13;;;;;;;44.98;26.27;;;;;;;1.25;63.39;95002.80;834204;71;32112;-82
2022/01/16 20:16:09;;;;;;;67.58;35.40;;;;;;;1.24;64.55;95006.38;828321;71;29727;-82
2022/01/16 20:31:15;;;;;;;73.10;40.92;;;;;;;1.06;64.70;94983.94;834124;71;32685;-82
2022/01/16 20:46:12;;;;;;;85.05;46.73;;;;;;;1.14;65.13;94992.19;819789;71;31374;-84
2022/01/16 21:01:11;;;;;;;75.08;39.70;;;;;;;0.84;65.04;94946.12;828225;71;31227;-82
2022/01/16 21:16:14;;;;;;;74.05;38.50;;;;;;;0.96;65.52;94983.92;834122;71;32524;-80
2022/01/16 21:31:20;;;;;;;83.90;45.52;;;;;;;0.85;66.08;94998.83;828457;71;32846;-82
2022/01/16 21:46:14;;;;;;;91.12;45.67;;;;;;;0.78;66.52;94976.16;829358;71;34259;-83
2022/01/16 22:01:11;;;;;;;74.15;37.17;;;;;;;0.68;66.67;94963.74;828119;71;30428;-83
2022/01/16 22:16:11;;;;;;;57.38;33.67;;;;;;;0.57;66.64;94970.41;821377;71;30882;-83
2022/01/16 22:31:14;;;;;;;61.25;34.63;;;;;;;0.51;66.95;94949.31;821783;71;30301;-81
2022/01/16 22:46:09;;;;;;;67.97;37.48;;;;;;;0.46;67.18;94923.84;822630;71;30392;-82
2022/01/16 23:01:10;;;;;;;62.13;31.80;;;;;;;0.42;67.37;94927.86;828441;71;30302;-81
2022/01/16 23:16:09;;;;;;;52.00;28.95;;;;;;;0.34;67.38;94912.92;828152;71;29703;-81
2022/01/16 23:31:16;;;;;;;58.87;32.35;;;;;;;0.29;67.80;94897.30;827132;71;33463;-82
2022/01/16 23:46:15;;;;;;;52.95;31.82;;;;;;;0.19;68.30;94893.91;827934;71;29615;-82
